Time;durP1;ratioP1;P1;durP2;ratioP2;P2;SDS_P1;SDS_P2;PMS_P1;PMS_P2;Temp;Humidity;BMP_temperature;BMP_pressure;BME280_temperature;BME280_humidity;BME280_pressure;Samples;Min_cycle;Max_cycle;Signal;HPM_P1;HPM_P2
2022/09/24 00:03:11;;;;;;;;;;;;;;;10.54;100.00;101118.53;10388290;28;19928;-80
2022/09/24 00:08:12;;;;;;;;;;;;;;;10.58;100.00;101110.88;10406437;28;20284;-80
2022/09/24 00:13:13;;;;;;;;;;;;;;;10.60;100.00;101107.44;10412963;28;19921;-81
2022/09/24 00:18:14;;;;;;;;;;;;;;;10.58;100.00;101099.53;10443764;28;20388;-80
2022/09/24 00:23:14;;;;;;;;;;;;;;;10.61;100.00;101098.78;10429158;28;19924;-80
2022/09/24 00:28:14;;;;;;;;;;;;;;;10.66;100.00;101095.59;10425309;28;19924;-80
2022/09/24 00:33:15;;;;;;;;;;;;;;;10.74;100.00;101085.50;10412109;28;19936;-81
2022/09/24 00:38:15;;;;;;;;;;;;;;;10.72;100.00;101095.91;10425234;28;20015;-81
2022/09/24 00:43:28;;;;;;;;;;;;;;;10.65;100.00;101090.25;10426993;28;20372;-81
2022/09/24 00:48:31;;;;;;;;;;;;;;;10.62;100.00;101092.72;10424724;28;19925;-81
2022/09/24 00:53:32;;;;;;;;;;;;;;;10.64;100.00;101086.75;10410102;28;19997;-81
2022/09/24 00:58:32;;;;;;;;;;;;;;;10.57;100.00;101079.41;10407367;28;20027;-81
2022/09/24 01:03:34;;;;;;;;;;;;;;;10.51;100.00;101069.53;10427116;28;19921;-81
2022/09/24 01:08:35;;;;;;;;;;;;;;;10.42;100.00;101069.06;10403169;28;19944;-81
2022/09/24 01:13:40;;;;;;;;;;;;;;;10.32;100.00;101061.50;10386474;28;19927;-80
2022/09/24 01:18:43;;;;;;;;;;;;;;;10.32;100.00;101051.97;10407373;28;20316;-80
2022/09/24 01:23:47;;;;;;;;;;;;;;;10.32;100.00;101041.50;10426135;28;20429;-81
2022/09/24 01:28:54;;;;;;;;;;;;;;;10.35;100.00;101043.34;10402137;28;20004;-81
2022/09/24 01:33:54;;;;;;;;;;;;;;;10.26;100.00;101044.69;10401866;28;19917;-81
2022/09/24 01:38:55;;;;;;;;;;;;;;;10.24;100.00;101038.47;10420576;28;20361;-80
2022/09/24 01:43:55;;;;;;;;;;;;;;;10.20;100.00;101027.78;10425584;28;19974;-80
2022/09/24 01:48:55;;;;;;;;;;;;;;;10.17;100.00;101023.28;10384436;28;19925;-81
2022/09/24 01:54:03;;;;;;;;;;;;;;;10.11;100.00;101018.66;10382474;28;19921;-81
2022/09/24 01:59:05;;;;;;;;;;;;;;;10.11;100.00;101012.50;10405978;28;20360;-81
2022/09/24 02:04:09;;;;;;;;;;;;;;;10.09;100.00;101001.06;10441683;28;19925;-81
2022/09/24 02:09:28;;;;;;;;;;;;;;;10.08;100.00;101007.09;10408906;28;19920;-81
2022/09/24 02:14:29;;;;;;;;;;;;;;;10.06;100.00;101003.50;10442496;28;19928;-81
2022/09/24 02:19:29;;;;;;;;;;;;;;;10.11;100.00;100999.41;10391596;28;20270;-81
2022/09/24 02:24:39;;;;;;;;;;;;;;;10.17;100.00;100993.63;10383991;28;20331;-81
2022/09/24 02:29:39;;;;;;;;;;;;;;;10.23;100.00;101001.78;10414496;28;19986;-81
2022/09/24 02:34:41;;;;;;;;;;;;;;;10.21;100.00;100998.19;10401636;28;20016;-82
2022/09/24 02:39:41;;;;;;;;;;;;;;;10.27;100.00;100993.28;10413806;28;19947;-82
2022/09/24 02:44:42;;;;;;;;;;;;;;;10.29;100.00;100992.50;10425102;28;19923;-81
2022/09/24 02:49:42;;;;;;;;;;;;;;;10.37;100.00;100986.78;10416937;28;20071;-80
2022/09/24 02:54:42;;;;;;;;;;;;;;;10.37;100.00;100982.47;10357872;28;19965;-80
2022/09/24 02:59:43;;;;;;;;;;;;;;;10.37;100.00;100985.06;10399782;28;19928;-80
2022/09/24 03:04:43;;;;;;;;;;;;;;;10.40;100.00;100979.13;10399838;28;19921;-80
2022/09/24 03:09:44;;;;;;;;;;;;;;;10.40;100.00;100979.13;10427208;28;20289;-80
2022/09/24 03:14:44;;;;;;;;;;;;;;;10.43;100.00;100967.09;10440962;28;19924;-80
2022/09/24 03:19:45;;;;;;;;;;;;;;;10.39;100.00;100966.81;10404733;28;19928;-80
2022/09/24 03:24:45;;;;;;;;;;;;;;;10.37;100.00;100966.75;10398768;28;19917;-80
2022/09/24 03:35:04;;;;;;;;;;;;;;;10.46;100.00;100968.06;10398844;28;20269;-81
2022/09/24 03:40:06;;;;;;;;;;;;;;;10.43;100.00;100961.88;10398723;28;19925;-82
2022/09/24 03:45:07;;;;;;;;;;;;;;;10.45;100.00;100968.91;10380886;28;19917;-82
2022/09/24 03:50:10;;;;;;;;;;;;;;;10.43;100.00;100959.25;10379492;28;20353;-82
2022/09/24 03:55:10;;;;;;;;;;;;;;;10.43;100.00;100961.88;10381590;28;19928;-82
2022/09/24 04:00:11;;;;;;;;;;;;;;;10.45;100.00;100964.53;10413595;28;19921;-81
2022/09/24 04:05:12;;;;;;;;;;;;;;;10.36;100.00;100957.13;10386199;28;20365;-82
2022/09/24 04:10:12;;;;;;;;;;;;;;;10.33;100.00;100950.81;10422309;28;19928;-81
2022/09/24 04:15:15;;;;;;;;;;;;;;;10.27;100.00;100948.81;10446585;28;19920;-81
2022/09/24 04:20:15;;;;;;;;;;;;;;;10.24;100.00;100941.69;10443975;28;20285;-81
2022/09/24 04:25:16;;;;;;;;;;;;;;;10.26;100.00;100947.00;10428593;28;19916;-81
2022/09/24 04:30:16;;;;;;;;;;;;;;;10.25;100.00;100947.84;10427133;28;19924;-82
2022/09/24 04:35:20;;;;;;;;;;;;;;;10.27;100.00;100943.56;10425490;28;20007;-82
2022/09/24 04:40:21;;;;;;;;;;;;;;;10.24;100.00;100944.31;10428574;28;19925;-81
2022/09/24 04:45:23;;;;;;;;;;;;;;;10.19;100.00;100942.28;10408087;28;20435;-82
2022/09/24 04:50:27;;;;;;;;;;;;;;;10.17;100.00;100941.31;10385776;28;20000;-82
2022/09/24 04:55:28;;;;;;;;;;;;;;;10.14;100.00;100939.44;10405237;28;19921;-82
2022/09/24 05:00:30;;;;;;;;;;;;;;;10.18;100.00;100945.72;10444525;28;19920;-81
2022/09/24 05:05:31;;;;;;;;;;;;;;;10.15;100.00;100933.38;10415820;28;20043;-81
2022/09/24 05:10:32;;;;;;;;;;;;;;;10.17;100.00;100942.19;10418444;28;20388;-79
2022/09/24 05:15:32;;;;;;;;;;;;;;;10.16;100.00;100945.63;10405995;28;19920;-79
2022/09/24 05:20:32;;;;;;;;;;;;;;;10.18;100.00;100950.97;10436773;28;19921;-81
2022/09/24 05:27:07;;;;;;;;;;;;;;;10.21;100.00;100940.66;10418058;28;19921;-80
2022/09/24 05:31:01;;;;;;;;;;;;;;;10.18;100.00;100950.97;10432405;28;19924;-80
2022/09/24 05:36:02;;;;;;;;;;;;;;;10.21;100.00;100949.38;10383658;28;19921;-78
2022/09/24 05:41:03;;;;;;;;;;;;;;;10.28;100.00;100950.59;10375238;28;19925;-80
2022/09/24 05:46:06;;;;;;;;;;;;;;;10.36;100.00;100948.34;10399103;28;19943;-78
2022/09/24 05:51:07;;;;;;;;;;;;;;;10.45;100.00;100955.81;10411369;28;19921;-80
2022/09/24 05:56:09;;;;;;;;;;;;;;;10.55;100.00;100966.78;10418621;28;19921;-79
2022/09/24 06:01:09;;;;;;;;;;;;;;;10.66;100.00;100975.19;10403776;28;20273;-81
2022/09/24 06:06:10;;;;;;;;;;;;;;;10.78;100.00;100972.25;10403008;28;19921;-79
2022/09/24 06:11:12;;;;;;;;;;;;;;;10.89;100.00;100964.00;10402158;28;19936;-80
2022/09/24 06:16:12;;;;;;;;;;;;;;;10.98;100.00;100965.38;10381560;28;19949;-82
2022/09/24 06:21:13;;;;;;;;;;;;;;;11.17;100.00;100963.63;10399751;28;20015;-83
2022/09/24 06:26:13;;;;;;;;;;;;;;;11.49;100.00;100963.28;10377839;28;19928;-84
2022/09/24 06:31:14;;;;;;;;;;;;;;;11.76;100.00;100974.13;10376775;28;20400;-86
2022/09/24 06:36:14;;;;;;;;;;;;;;;12.00;100.00;100974.34;10391942;28;19921;-84
2022/09/24 06:41:15;;;;;;;;;;;;;;;12.33;100.00;100978.34;10383246;28;20285;-81
2022/09/24 06:46:15;;;;;;;;;;;;;;;12.50;100.00;100979.06;10379991;28;19929;-84
2022/09/24 06:51:16;;;;;;;;;;;;;;;12.76;100.00;100985.38;10403930;28;20369;-86
2022/09/24 06:56:16;;;;;;;;;;;;;;;12.94;100.00;100981.72;10373789;28;20002;-84
2022/09/24 07:01:16;;;;;;;;;;;;;;;13.24;100.00;100990.72;10358464;28;19917;-79
2022/09/24 07:06:17;;;;;;;;;;;;;;;13.31;100.00;100985.78;10366730;28;19921;-79
2022/09/24 07:11:17;;;;;;;;;;;;;;;13.22;100.00;100988.94;10381777;28;19921;-81
2022/09/24 07:16:17;;;;;;;;;;;;;;;13.01;100.00;100989.00;10398227;28;19972;-80
2022/09/24 07:21:18;;;;;;;;;;;;;;;12.98;100.00;100994.13;10375464;28;19921;-79
2022/09/24 07:26:18;;;;;;;;;;;;;;;12.90;100.00;100999.06;10397705;28;20416;-81
2022/09/24 07:31:19;;;;;;;;;;;;;;;12.82;100.00;100995.22;10379752;28;19925;-80
2022/09/24 07:36:19;;;;;;;;;;;;;;;12.88;100.00;100998.09;10380409;28;20031;-78
2022/09/24 07:41:19;;;;;;;;;;;;;;;12.84;100.00;100998.81;10429280;28;19925;-78
2022/09/24 07:46:20;;;;;;;;;;;;;;;12.80;100.00;101004.78;10405594;28;19960;-80
2022/09/24 07:51:21;;;;;;;;;;;;;;;12.83;100.00;101004.91;10411290;28;19924;-80
2022/09/24 07:56:22;;;;;;;;;;;;;;;12.86;100.00;101002.41;10386282;28;19921;-80
2022/09/24 08:01:23;;;;;;;;;;;;;;;12.93;100.00;101012.31;10365173;28;20419;-81
2022/09/24 08:06:23;;;;;;;;;;;;;;;13.06;100.00;101004.94;10365544;28;19917;-79
2022/09/24 08:11:24;;;;;;;;;;;;;;;13.21;100.00;101009.91;10363965;28;19921;-79
2022/09/24 08:16:25;;;;;;;;;;;;;;;13.29;100.00;101021.63;10365560;28;20277;-79
2022/09/24 08:21:27;;;;;;;;;;;;;;;13.39;100.00;101011.47;10362254;28;19921;-79
2022/09/24 08:26:27;;;;;;;;;;;;;;;13.43;100.00;101022.16;10363921;28;20365;-78
2022/09/24 08:31:29;;;;;;;;;;;;;;;13.50;100.00;101023.31;10363788;28;19924;-79
2022/09/24 08:36:29;;;;;;;;;;;;;;;13.56;100.00;101026.19;10362336;28;19925;-79
2022/09/24 08:41:31;;;;;;;;;;;;;;;13.57;100.00;101027.97;10364192;28;19922;-79
2022/09/24 08:52:01;;;;;;;;;;;;;;;13.71;99.53;101039.00;10370849;28;19928;-80
2022/09/24 08:57:02;;;;;;;;;;;;;;;13.74;100.00;101030.34;10382613;28;20361;-79
2022/09/24 09:02:14;;;;;;;;;;;;;;;13.99;100.00;101039.13;10418824;28;19929;-76
2022/09/24 09:07:22;;;;;;;;;;;;;;;14.20;99.69;101033.72;10401464;28;20007;-80
2022/09/24 09:12:23;;;;;;;;;;;;;;;14.32;96.64;101038.53;10403998;28;19921;-80
2022/09/24 09:17:41;;;;;;;;;;;;;;;14.36;96.79;101040.44;10415581;28;19921;-80
2022/09/24 09:22:43;;;;;;;;;;;;;;;14.46;97.08;101029.38;10413096;28;19936;-80
2022/09/24 09:27:43;;;;;;;;;;;;;;;14.63;95.04;101037.84;10384980;28;19928;-78
2022/09/24 09:32:47;;;;;;;;;;;;;;;14.81;95.94;101039.34;10438035;28;19927;-78
2022/09/24 09:37:56;;;;;;;;;;;;;;;15.23;90.69;101043.31;10401930;28;19928;-78
2022/09/24 09:43:01;;;;;;;;;;;;;;;15.43;89.69;101035.13;10376867;28;19922;-78
2022/09/24 09:48:02;;;;;;;;;;;;;;;15.71;88.15;101028.91;10331919;28;19921;-78
2022/09/24 09:53:03;;;;;;;;;;;;;;;15.86;85.93;101036.41;10370766;28;19955;-79
2022/09/24 09:58:09;;;;;;;;;;;;;;;16.32;86.70;101036.78;10368964;28;20028;-78
2022/09/24 10:03:25;;;;;;;;;;;;;;;16.41;81.98;101031.75;10383358;28;19928;-78
2022/09/24 10:08:26;;;;;;;;;;;;;;;16.85;81.71;101039.03;10382562;28;19928;-78
2022/09/24 10:13:26;;;;;;;;;;;;;;;17.34;80.23;101033.16;10397622;28;19928;-79
2022/09/24 10:18:28;;;;;;;;;;;;;;;17.56;76.70;101029.22;10398771;28;19917;-79
2022/09/24 10:23:31;;;;;;;;;;;;;;;18.71;73.29;101025.22;10392719;28;19932;-79
2022/09/24 10:33:53;;;;;;;;;;;;;;;18.31;70.51;101030.72;10382485;28;19925;-78
2022/09/24 10:39:13;;;;;;;;;;;;;;;18.05;73.89;101026.72;10383107;28;19956;-79
2022/09/24 10:44:13;;;;;;;;;;;;;;;17.85;71.83;101030.69;10375574;28;19941;-79
2022/09/24 10:49:33;;;;;;;;;;;;;;;18.04;74.50;101024.03;10378465;28;20409;-79
2022/09/24 10:54:33;;;;;;;;;;;;;;;19.11;69.77;101020.59;10317529;28;19924;-77
2022/09/24 10:59:53;;;;;;;;;;;;;;;19.70;65.71;101021.38;10377875;28;19928;-77
2022/09/24 11:04:55;;;;;;;;;;;;;;;19.43;65.37;101019.25;10415588;28;20287;-76
2022/09/24 11:10:13;;;;;;;;;;;;;;;18.47;67.11;101022.19;10383068;28;19929;-78
2022/09/24 11:15:26;;;;;;;;;;;;;;;18.08;70.14;101031.16;10407790;28;20455;-78
2022/09/24 11:20:28;;;;;;;;;;;;;;;17.64;71.16;101031.13;10390646;28;19931;-78
2022/09/24 11:25:29;;;;;;;;;;;;;;;17.64;71.14;101024.09;10389038;28;19920;-78
2022/09/24 11:31:08;;;;;;;;;;;;;;;17.83;69.96;101024.47;10407579;28;19923;-79
2022/09/24 11:36:27;;;;;;;;;;;;;;;18.51;68.34;101012.53;10277502;28;20898;-77
2022/09/24 11:41:30;;;;;;;;;;;;;;;18.92;67.31;101012.31;10344339;28;19917;-82
2022/09/24 11:46:30;;;;;;;;;;;;;;;20.67;62.84;101010.00;10380837;28;20384;-82
2022/09/24 11:51:31;;;;;;;;;;;;;;;20.38;62.14;101003.56;10364943;28;19924;-80
2022/09/24 11:56:42;;;;;;;;;;;;;;;20.79;58.22;100999.47;10364211;28;20012;-80
2022/09/24 12:01:46;;;;;;;;;;;;;;;20.21;61.21;101008.69;10351171;28;19925;-78
2022/09/24 12:06:52;;;;;;;;;;;;;;;21.55;59.12;101005.25;10376568;28;20262;-78
2022/09/24 12:11:54;;;;;;;;;;;;;;;21.39;55.57;101009.63;10363589;28;19980;-78
2022/09/24 12:17:04;;;;;;;;;;;;;;;19.93;61.08;101005.75;10371098;28;20014;-79
2022/09/24 12:22:05;;;;;;;;;;;;;;;20.69;57.52;101013.56;10349216;28;20366;-79
2022/09/24 12:27:16;;;;;;;;;;;;;;;19.65;62.72;101000.06;10354098;28;19929;-79
2022/09/24 12:38:09;;;;;;;;;;;;;;;18.39;66.58;100992.00;10363290;28;19925;-80
2022/09/24 12:43:28;;;;;;;;;;;;;;;17.90;67.87;100997.28;10347104;28;19926;-78
2022/09/24 12:48:37;;;;;;;;;;;;;;;17.71;68.50;100990.69;10360157;28;19928;-79
2022/09/24 12:53:48;;;;;;;;;;;;;;;18.14;65.68;100994.22;10332369;28;19922;-76
2022/09/24 12:58:49;;;;;;;;;;;;;;;18.40;63.59;100996.44;10393215;28;20525;-79
2022/09/24 13:04:05;;;;;;;;;;;;;;;18.30;64.20;100990.09;10367032;28;19925;-79
2022/09/24 13:09:21;;;;;;;;;;;;;;;19.11;61.43;100987.84;9481759;28;24801513;-80
2022/09/24 13:14:28;;;;;;;;;;;;;;;19.05;63.59;100986.91;10360868;28;19921;-79
2022/09/24 13:19:33;;;;;;;;;;;;;;;18.60;63.34;100986.19;10396188;28;19928;-79
2022/09/24 13:24:45;;;;;;;;;;;;;;;18.31;66.50;100983.94;10411204;28;20339;-79
2022/09/24 13:30:02;;;;;;;;;;;;;;;18.08;68.64;100983.50;10407494;28;20285;-79
2022/09/24 13:35:05;;;;;;;;;;;;;;;17.88;69.29;100983.09;10352568;28;20409;-79
2022/09/24 13:40:13;;;;;;;;;;;;;;;17.72;68.62;100988.09;10331257;28;19932;-80
2022/09/24 13:45:18;;;;;;;;;;;;;;;17.40;69.23;100990.06;10369272;28;19922;-80
2022/09/24 13:50:24;;;;;;;;;;;;;;;17.77;68.59;100980.22;10361081;28;20024;-79
2022/09/24 13:55:37;;;;;;;;;;;;;;;18.06;69.33;100990.53;10362223;28;20491;-80
2022/09/24 14:00:37;;;;;;;;;;;;;;;17.87;72.31;100991.91;10349235;28;20381;-79
2022/09/24 14:05:39;;;;;;;;;;;;;;;17.87;70.55;100995.44;10347211;28;20000;-78
2022/09/24 14:10:55;;;;;;;;;;;;;;;17.72;69.15;100993.41;10354280;28;19925;-78
2022/09/24 14:16:01;;;;;;;;;;;;;;;17.53;69.92;100994.75;10391312;28;19921;-79
2022/09/24 14:21:09;;;;;;;;;;;;;;;17.20;70.44;100993.16;10322416;28;20297;-78
2022/09/24 14:26:15;;;;;;;;;;;;;;;16.90;70.68;100993.31;10343013;28;19922;-76
2022/09/24 14:31:23;;;;;;;;;;;;;;;16.42;73.05;100991.28;10320034;28;20020;-78
2022/09/24 14:36:29;;;;;;;;;;;;;;;16.18;75.07;100995.94;10303882;28;20348;-78
2022/09/24 14:41:36;;;;;;;;;;;;;;;15.90;76.97;100989.91;10337090;28;19917;-78
2022/09/24 14:46:40;;;;;;;;;;;;;;;15.87;78.83;100988.09;10326390;28;20644;-76
2022/09/24 14:51:52;;;;;;;;;;;;;;;16.12;76.70;100987.00;10331250;28;19932;-78
2022/09/24 14:56:56;;;;;;;;;;;;;;;16.23;75.73;100995.22;10339814;28;19929;-76
2022/09/24 15:02:17;;;;;;;;;;;;;;;16.20;77.88;100994.22;10333345;28;19984;-78
2022/09/24 15:07:20;;;;;;;;;;;;;;;16.37;76.64;100992.03;10319339;28;19949;-78
2022/09/24 15:12:29;;;;;;;;;;;;;;;16.26;78.79;100995.28;10343413;28;20378;-79
2022/09/24 15:17:52;;;;;;;;;;;;;;;16.02;81.86;100984.94;10378391;28;19922;-80
2022/09/24 15:22:53;;;;;;;;;;;;;;;15.96;82.45;100990.06;10351578;28;19921;-80
2022/09/24 15:27:55;;;;;;;;;;;;;;;15.83;81.37;100994.09;10338715;28;19921;-80
2022/09/24 15:32:56;;;;;;;;;;;;;;;15.70;82.13;101000.75;10340820;28;20361;-80
2022/09/24 15:37:57;;;;;;;;;;;;;;;15.45;84.91;100999.16;10345794;28;19929;-80
2022/09/24 15:42:58;;;;;;;;;;;;;;;15.03;88.27;101004.06;10349949;28;19988;-80
2022/09/24 15:48:02;;;;;;;;;;;;;;;14.75;91.48;101010.16;10397697;28;20449;-79
2022/09/24 15:53:05;;;;;;;;;;;;;;;14.58;92.50;101017.47;10327003;28;19921;-78
2022/09/24 15:58:11;;;;;;;;;;;;;;;14.48;91.85;101018.91;10329902;28;19945;-78
2022/09/24 16:03:13;;;;;;;;;;;;;;;14.44;93.32;101020.53;10347200;28;19925;-79
2022/09/24 16:08:14;;;;;;;;;;;;;;;14.48;93.21;101016.25;10375380;28;19921;-79
2022/09/24 16:13:16;;;;;;;;;;;;;;;14.56;93.23;101013.91;10361989;28;19921;-77
2022/09/24 16:18:24;;;;;;;;;;;;;;;14.63;92.84;101024.69;10390931;28;20300;-77
2022/09/24 16:23:25;;;;;;;;;;;;;;;14.54;91.33;101020.00;10397071;28;19975;-78
2022/09/24 16:28:26;;;;;;;;;;;;;;;14.46;90.52;101032.03;10393195;28;20011;-77
2022/09/24 16:33:33;;;;;;;;;;;;;;;14.36;90.53;101038.69;10407877;28;19928;-77
2022/09/24 16:38:36;;;;;;;;;;;;;;;14.22;89.51;101043.50;10387639;28;19921;-77
2022/09/24 16:43:37;;;;;;;;;;;;;;;14.13;90.54;101056.31;10371993;28;19929;-76
2022/09/24 16:48:37;;;;;;;;;;;;;;;14.05;90.92;101056.03;10363158;28;20328;-78
2022/09/24 16:53:38;;;;;;;;;;;;;;;13.97;89.40;101053.97;10377987;28;19928;-77
2022/09/24 16:58:41;;;;;;;;;;;;;;;13.82;91.03;101065.72;10361501;28;19926;-78
2022/09/24 17:03:45;;;;;;;;;;;;;;;13.76;92.82;101065.47;10362199;28;20393;-79
2022/09/24 17:14:15;;;;;;;;;;;;;;;13.56;93.28;101073.50;10416358;28;19921;-79
2022/09/24 17:19:17;;;;;;;;;;;;;;;13.48;94.41;101080.22;10380658;28;19943;-77
2022/09/24 17:24:21;;;;;;;;;;;;;;;13.27;96.38;101085.47;10375679;28;20284;-80
2022/09/24 17:29:24;;;;;;;;;;;;;;;13.36;94.65;101083.19;10370370;28;19921;-79
2022/09/24 17:34:29;;;;;;;;;;;;;;;13.28;96.84;101088.16;10412267;28;19921;-78
2022/09/24 17:39:29;;;;;;;;;;;;;;;13.18;98.35;101086.00;10384262;28;19928;-76
2022/09/24 17:44:33;;;;;;;;;;;;;;;13.24;98.74;101091.50;10353323;28;20004;-78
2022/09/24 17:49:34;;;;;;;;;;;;;;;13.24;98.65;101087.97;10393978;28;19944;-79
2022/09/24 17:54:38;;;;;;;;;;;;;;;13.16;97.71;101099.06;10399772;28;20004;-78
2022/09/24 17:59:38;;;;;;;;;;;;;;;13.06;98.50;101100.44;10392187;28;19921;-78
2022/09/24 18:04:39;;;;;;;;;;;;;;;12.92;99.76;101107.72;10379749;28;20019;-78
2022/09/24 18:09:40;;;;;;;;;;;;;;;12.82;98.11;101110.78;10383237;28;19940;-78
2022/09/24 18:14:44;;;;;;;;;;;;;;;12.69;99.06;101114.63;10440697;28;19927;-78
2022/09/24 18:19:45;;;;;;;;;;;;;;;12.59;99.84;101113.34;10440346;28;20012;-79
2022/09/24 18:24:46;;;;;;;;;;;;;;;12.39;100.00;101114.19;10441082;28;19921;-78
2022/09/24 18:29:53;;;;;;;;;;;;;;;12.36;100.00;101127.19;10433197;28;19925;-78
2022/09/24 18:34:58;;;;;;;;;;;;;;;12.31;99.37;101134.84;10398677;28;20380;-78
2022/09/24 18:39:59;;;;;;;;;;;;;;;12.27;99.85;101143.44;10381704;28;19970;-78
2022/09/24 18:45:00;;;;;;;;;;;;;;;12.16;99.84;101150.78;10397341;28;19925;-78
2022/09/24 18:50:02;;;;;;;;;;;;;;;11.94;100.00;101147.16;10398428;28;19965;-78
2022/09/24 18:55:10;;;;;;;;;;;;;;;12.00;100.00;101149.22;10373395;28;19965;-78
2022/09/24 19:00:48;;;;;;;;;;;;;;;11.98;100.00;101146.47;10393415;28;19943;-78
2022/09/24 19:05:39;;;;;;;;;;;;;;;11.84;100.00;101156.31;10411555;28;19929;-78
2022/09/24 19:10:40;;;;;;;;;;;;;;;11.89;100.00;101154.81;10357023;28;19932;-77
2022/09/24 19:15:42;;;;;;;;;;;;;;;11.88;100.00;101160.88;10356311;28;19928;-78
2022/09/24 19:20:47;;;;;;;;;;;;;;;11.94;100.00;101159.38;10338226;28;19932;-78
2022/09/24 19:25:49;;;;;;;;;;;;;;;12.08;100.00;101160.94;10337974;28;19926;-78
2022/09/24 19:30:51;;;;;;;;;;;;;;;11.97;100.00;101168.28;10355872;28;19964;-78
2022/09/24 19:35:56;;;;;;;;;;;;;;;11.92;100.00;101171.53;10420546;28;19929;-79
2022/09/24 19:41:09;;;;;;;;;;;;;;;11.93;100.00;101165.44;10355796;28;20048;-79
2022/09/24 19:46:11;;;;;;;;;;;;;;;12.02;100.00;101164.16;10395160;28;19921;-79
2022/09/24 19:51:15;;;;;;;;;;;;;;;12.16;100.00;101164.81;10365716;28;19922;-79
2022/09/24 19:56:21;;;;;;;;;;;;;;;12.16;100.00;101169.16;10365338;28;19925;-78
2022/09/24 20:01:23;;;;;;;;;;;;;;;12.28;100.00;101176.72;10391769;28;19924;-78
2022/09/24 20:06:27;;;;;;;;;;;;;;;12.18;100.00;101183.25;10402990;28;19924;-78
2022/09/24 20:11:35;;;;;;;;;;;;;;;12.31;100.00;101184.72;10368175;28;19971;-78
2022/09/24 20:16:36;;;;;;;;;;;;;;;12.30;100.00;101180.31;10367064;28;19975;-79
2022/09/24 20:21:37;;;;;;;;;;;;;;;12.32;100.00;101179.53;10363684;28;19917;-79
2022/09/24 20:32:02;;;;;;;;;;;;;;;12.29;100.00;101189.88;10402049;28;19936;-79
2022/09/24 20:37:04;;;;;;;;;;;;;;;12.26;100.00;101181.00;10362790;28;19924;-80
2022/09/24 20:42:09;;;;;;;;;;;;;;;12.19;100.00;101192.91;10389667;28;19963;-79
2022/09/24 20:47:12;;;;;;;;;;;;;;;12.21;100.00;101187.75;10406671;28;19921;-78
2022/09/24 20:52:15;;;;;;;;;;;;;;;12.19;100.00;101195.53;10377805;28;19925;-78
2022/09/24 20:57:17;;;;;;;;;;;;;;;12.02;100.00;101193.03;10364404;28;20371;-78
2022/09/24 21:02:18;;;;;;;;;;;;;;;11.98;100.00;101187.53;10389871;28;19927;-78
2022/09/24 21:12:46;;;;;;;;;;;;;;;11.71;100.00;101191.53;10404362;28;19928;-79
2022/09/24 21:17:52;;;;;;;;;;;;;;;11.60;100.00;101196.28;10363470;28;20251;-80
2022/09/24 21:23:07;;;;;;;;;;;;;;;11.53;100.00;101198.50;10364766;28;20377;-79
2022/09/24 21:28:09;;;;;;;;;;;;;;;11.49;100.00;101202.72;10376237;28;19925;-81
2022/09/24 21:33:09;;;;;;;;;;;;;;;11.45;100.00;101200.78;10366392;28;20373;-82
2022/09/24 21:38:18;;;;;;;;;;;;;;;11.37;100.00;101205.63;10403344;28;19917;-82
2022/09/24 21:43:28;;;;;;;;;;;;;;;11.33;100.00;101208.03;10399854;28;20015;-81
2022/09/24 21:48:36;;;;;;;;;;;;;;;11.31;100.00;101210.53;10360589;28;20266;-81
2022/09/24 21:53:37;;;;;;;;;;;;;;;11.28;100.00;101210.41;10370371;28;20258;-80
2022/09/24 21:58:38;;;;;;;;;;;;;;;11.26;100.00;101201.56;10401889;28;19923;-80
2022/09/24 22:03:39;;;;;;;;;;;;;;;11.26;100.00;101212.94;10393939;28;19929;-80
2022/09/24 22:08:45;;;;;;;;;;;;;;;11.23;100.00;101209.25;10362331;28;19948;-80
2022/09/24 22:13:46;;;;;;;;;;;;;;;11.19;100.00;101216.09;10368369;28;19924;-79
2022/09/24 22:18:47;;;;;;;;;;;;;;;11.21;100.00;101221.38;10402510;28;20296;-80
2022/09/24 22:23:49;;;;;;;;;;;;;;;11.21;100.00;101222.31;10418412;28;19927;-80
2022/09/24 22:28:51;;;;;;;;;;;;;;;11.22;100.00;101223.19;10443075;28;19924;-79
2022/09/24 22:39:12;;;;;;;;;;;;;;;11.20;100.00;101228.38;10399905;28;19924;-80
2022/09/24 22:44:13;;;;;;;;;;;;;;;11.22;100.00;101217.94;10420191;28;20088;-80
2022/09/24 22:49:15;;;;;;;;;;;;;;;11.21;100.00;101219.69;10433077;28;19932;-80
2022/09/24 22:54:18;;;;;;;;;;;;;;;11.23;100.00;101227.59;10410056;28;19924;-80
2022/09/24 22:59:19;;;;;;;;;;;;;;;11.15;100.00;101225.50;10440988;28;19916;-80
2022/09/24 23:04:19;;;;;;;;;;;;;;;11.22;100.00;101229.34;10439842;28;19932;-80
2022/09/24 23:09:20;;;;;;;;;;;;;;;11.18;100.00;101218.59;10445334;28;19969;-79
2022/09/24 23:14:20;;;;;;;;;;;;;;;11.15;100.00;101222.00;10417345;28;19921;-80
2022/09/24 23:19:22;;;;;;;;;;;;;;;11.14;100.00;101223.69;10397857;28;19928;-80
2022/09/24 23:24:22;;;;;;;;;;;;;;;11.10;100.00;101220.84;10434722;28;19921;-80
2022/09/24 23:29:23;;;;;;;;;;;;;;;11.06;100.00;101217.16;10407534;28;20285;-80
2022/09/24 23:34:23;;;;;;;;;;;;;;;11.10;100.00;101215.63;10408326;28;19921;-79
2022/09/24 23:39:24;;;;;;;;;;;;;;;11.08;100.00;101212.91;10389501;28;20377;-78
2022/09/24 23:44:24;;;;;;;;;;;;;;;11.10;100.00;101215.63;10422183;28;19929;-80
2022/09/24 23:49:24;;;;;;;;;;;;;;;11.10;100.00;101211.25;10429715;28;19920;-80
2022/09/24 23:54:27;;;;;;;;;;;;;;;11.09;100.00;101222.56;10432884;28;20365;-79
2022/09/24 23:59:27;;;;;;;;;;;;;;;11.10;100.00;101229.59;10410566;28;20372;-80
